Time;durP1;ratioP1;P1;durP2;ratioP2;P2;SDS_P1;SDS_P2;PMS_P1;PMS_P2;Temp;Humidity;BMP_temperature;BMP_pressure;BME280_temperature;BME280_humidity;BME280_pressure;Samples;Min_cycle;Max_cycle;Signal;HPM_P1;HPM_P2
2022/10/13 03:18:32;;;;;;;44.90;26.77;;;;;;;8.33;100.00;97584.78;4980749;27;21237;-60
2022/10/13 03:21:03;;;;;;;32.43;25.93;;;;;;;8.33;100.00;97576.03;5049425;28;20206;-61
2022/10/13 03:23:31;;;;;;;28.63;25.70;;;;;;;8.37;100.00;97574.75;4996110;27;20210;-62
2022/10/13 03:26:00;;;;;;;39.40;27.53;;;;;;;8.40;100.00;97577.88;5026698;28;20233;-61
2022/10/13 03:28:28;;;;;;;28.43;25.60;;;;;;;8.40;100.00;97585.78;5021086;28;21027;-60
2022/10/13 03:31:03;;;;;;;29.73;26.63;;;;;;;8.44;100.00;97581.03;5049611;28;20224;-60
2022/10/13 03:33:33;;;;;;;30.63;27.40;;;;;;;8.46;100.00;97586.13;4997625;28;22833;-60
2022/10/13 03:36:03;;;;;;;29.47;26.47;;;;;;;8.46;100.00;97592.25;5018689;28;21073;-61
2022/10/13 03:38:32;;;;;;;30.30;27.10;;;;;;;8.45;100.00;97595.06;5018989;28;20868;-61
2022/10/13 03:41:04;;;;;;;27.23;24.37;;;;;;;8.46;100.00;97589.63;4994367;28;20205;-64
2022/10/13 03:43:33;;;;;;;26.77;24.17;;;;;;;8.50;100.00;97584.84;5023393;28;20393;-62
2022/10/13 03:46:02;;;;;;;27.97;25.13;;;;;;;8.52;100.00;97583.72;5008015;28;20558;-62
2022/10/13 03:48:30;;;;;;;29.80;26.67;;;;;;;8.47;100.00;97583.34;5050697;28;20632;-60
2022/10/13 03:51:04;;;;;;;32.73;26.90;;;;;;;8.50;100.00;97592.78;4978061;28;21004;-61
2022/10/13 03:53:32;;;;;;;35.57;28.20;;;;;;;8.51;100.00;97605.00;5026554;28;20217;-60
2022/10/13 03:56:01;;;;;;;34.00;28.57;;;;;;;8.48;100.00;97587.66;4996570;28;20739;-63
2022/10/13 03:58:29;;;;;;;35.43;27.70;;;;;;;8.48;100.00;97585.00;5050641;28;20674;-63
2022/10/13 04:01:03;;;;;;;34.57;26.07;;;;;;;8.59;100.00;97596.28;5021685;28;20417;-62
2022/10/13 04:03:32;;;;;;;36.27;31.07;;;;;;;8.62;100.00;97599.44;5048779;28;20359;-62
2022/10/13 04:06:02;;;;;;;34.00;28.67;;;;;;;8.67;100.00;97594.50;4971238;27;20574;-63
2022/10/13 04:08:30;;;;;;;38.23;29.20;;;;;;;8.67;100.00;97598.94;5007712;28;20901;-62
2022/10/13 04:10:59;;;;;;;33.87;29.53;;;;;;;8.61;100.00;97583.75;5021918;28;20352;-62
2022/10/13 04:13:28;;;;;;;34.90;27.17;;;;;;;8.73;100.00;97593.03;5028295;28;20732;-62
2022/10/13 04:15:57;;;;;;;33.53;28.87;;;;;;;8.67;100.00;97594.50;5010402;27;20232;-60
2022/10/13 04:18:25;;;;;;;38.13;32.63;;;;;;;8.58;100.00;97592.81;5051846;28;20272;-60
2022/10/13 04:20:53;;;;;;;34.23;28.43;;;;;;;8.47;100.00;97593.91;5020212;28;21012;-60
2022/10/13 04:23:22;;;;;;;36.03;29.07;;;;;;;8.45;100.00;97600.34;5001012;28;20217;-60
2022/10/13 04:25:51;;;;;;;40.77;32.30;;;;;;;8.47;100.00;97606.28;5004208;28;21018;-61
2022/10/13 04:28:19;;;;;;;44.93;35.93;;;;;;;8.52;100.00;97593.44;5048104;28;20235;-61
2022/10/13 04:30:47;;;;;;;39.87;34.23;;;;;;;8.56;100.00;97599.25;5013565;28;20210;-62
2022/10/13 04:33:16;;;;;;;36.83;32.57;;;;;;;8.52;100.00;97604.84;5037990;28;21044;-61
2022/10/13 04:35:45;;;;;;;32.27;28.87;;;;;;;8.60;100.00;97601.41;5007062;28;20221;-62
2022/10/13 04:38:13;;;;;;;30.40;27.10;;;;;;;8.64;100.00;97601.91;5015893;28;20211;-61
2022/10/13 04:40:43;;;;;;;33.70;29.23;;;;;;;8.61;100.00;97600.44;5008963;28;20218;-60
2022/10/13 04:43:11;;;;;;;36.23;28.87;;;;;;;8.63;100.00;97595.81;5012635;28;20315;-62
2022/10/13 04:45:40;;;;;;;33.40;29.97;;;;;;;8.65;100.00;97596.47;5021335;28;20228;-62
2022/10/13 04:48:08;;;;;;;28.47;25.50;;;;;;;8.64;100.00;97589.53;5035004;28;21497;-61
2022/10/13 04:50:36;;;;;;;29.37;26.23;;;;;;;8.66;100.00;97592.00;5034738;28;20808;-61
2022/10/13 04:53:04;;;;;;;28.63;25.70;;;;;;;8.70;100.00;97593.31;4962594;28;20847;-62
2022/10/13 04:55:35;;;;;;;30.37;27.37;;;;;;;8.77;100.00;97590.88;4975762;28;20667;-62
2022/10/13 04:58:05;;;;;;;29.67;26.27;;;;;;;8.83;100.00;97588.41;5035174;28;20229;-60
2022/10/13 05:00:33;;;;;;;30.07;26.93;;;;;;;8.86;100.00;97586.44;5034461;28;20210;-60
2022/10/13 05:03:01;;;;;;;31.77;27.33;;;;;;;8.87;100.00;97583.63;5009454;28;20310;-57
2022/10/13 05:05:30;;;;;;;32.30;27.73;;;;;;;8.95;100.00;97586.28;5035971;28;22289;-60
2022/10/13 05:07:58;;;;;;;29.30;26.33;;;;;;;9.01;100.00;97587.44;4963155;28;20238;-61
2022/10/13 05:10:27;;;;;;;31.03;27.77;;;;;;;8.91;100.00;97592.06;5011505;28;20225;-60
2022/10/13 05:13:01;;;;;;;33.13;28.00;;;;;;;8.87;100.00;97588.09;5007236;28;20213;-62
2022/10/13 05:15:30;;;;;;;33.17;28.77;;;;;;;8.92;100.00;97585.78;5003670;28;20232;-60
2022/10/13 05:17:59;;;;;;;34.23;29.20;;;;;;;8.87;100.00;97583.63;5009706;28;20214;-61
2022/10/13 05:20:27;;;;;;;32.03;26.73;;;;;;;8.93;100.00;97584.78;5033341;28;20916;-57
2022/10/13 05:22:55;;;;;;;33.07;29.47;;;;;;;8.88;100.00;97581.81;4989585;28;20221;-60
2022/10/13 05:25:24;;;;;;;35.03;31.47;;;;;;;8.85;100.00;97577.66;4977930;28;20226;-61
2022/10/13 05:27:55;;;;;;;29.83;26.73;;;;;;;8.86;100.00;97579.31;5036054;28;20214;-62
2022/10/13 05:30:23;;;;;;;31.97;28.10;;;;;;;8.87;100.00;97583.63;5033163;28;20405;-61
2022/10/13 05:32:52;;;;;;;29.77;26.67;;;;;;;8.87;100.00;97578.34;5012063;28;20423;-60
2022/10/13 05:35:21;;;;;;;30.03;26.83;;;;;;;8.89;100.00;97576.34;5032672;28;20339;-61
2022/10/13 05:37:49;;;;;;;29.87;26.70;;;;;;;8.91;100.00;97569.13;5036277;28;20198;-62
2022/10/13 05:40:17;;;;;;;33.43;28.67;;;;;;;8.97;100.00;97570.25;4957836;28;20219;-62
2022/10/13 05:42:45;;;;;;;31.00;27.70;;;;;;;8.96;100.00;97582.66;5036204;28;20203;-60
2022/10/13 05:45:13;;;;;;;30.40;27.30;;;;;;;9.00;100.00;97575.22;5034551;28;20301;-63
2022/10/13 05:47:41;;;;;;;32.80;29.27;;;;;;;9.01;100.00;97576.88;5035390;28;20462;-61
2022/10/13 05:50:11;;;;;;;31.00;27.33;;;;;;;8.98;100.00;97562.19;5010605;28;20309;-62
2022/10/13 05:52:39;;;;;;;31.73;27.47;;;;;;;9.00;100.00;97569.13;5033250;28;20226;-61
2022/10/13 05:55:10;;;;;;;32.90;29.43;;;;;;;9.05;100.00;97572.09;4984652;28;20222;-61
2022/10/13 05:57:41;;;;;;;31.77;27.50;;;;;;;9.10;100.00;97567.97;4984862;28;22049;-57
2022/10/13 06:00:11;;;;;;;31.03;27.67;;;;;;;9.09;100.00;97568.97;5035004;28;20206;-62
2022/10/13 06:02:41;;;;;;;29.60;26.30;;;;;;;9.08;100.00;97554.06;5033542;28;20570;-60
2022/10/13 06:05:15;;;;;;;35.10;27.83;;;;;;;9.20;100.00;97567.78;5006848;28;20237;-62
2022/10/13 06:07:44;;;;;;;31.63;26.47;;;;;;;9.26;100.00;97566.31;5023623;28;20825;-60
2022/10/13 06:10:12;;;;;;;30.17;26.27;;;;;;;9.27;100.00;97558.19;4981542;28;20214;-61
2022/10/13 06:12:41;;;;;;;27.43;24.63;;;;;;;9.44;100.00;97567.94;4987220;28;20750;-60
2022/10/13 06:15:10;;;;;;;28.77;25.77;;;;;;;9.38;100.00;97564.16;5035212;28;20244;-61
2022/10/13 06:17:39;;;;;;;28.37;25.43;;;;;;;9.38;100.00;97561.50;5034370;28;20210;-61
2022/10/13 06:20:08;;;;;;;28.77;25.97;;;;;;;9.37;100.00;97567.78;5038604;28;20360;-60
2022/10/13 06:22:38;;;;;;;32.63;25.70;;;;;;;9.38;100.00;97567.59;5010714;28;20214;-59
2022/10/13 06:25:08;;;;;;;28.10;25.20;;;;;;;9.37;100.00;97571.25;4985982;28;20846;-61
2022/10/13 06:27:37;;;;;;;29.80;26.80;;;;;;;9.41;100.00;97566.47;5010331;28;20240;-62
2022/10/13 06:30:06;;;;;;;28.17;25.27;;;;;;;9.57;100.00;97568.25;5035163;28;20762;-64
2022/10/13 06:32:34;;;;;;;27.60;24.33;;;;;;;9.56;100.00;97561.31;5032841;28;20845;-57
2022/10/13 06:35:02;;;;;;;30.80;24.50;;;;;;;9.64;100.00;97563.09;5035274;28;20230;-60
2022/10/13 06:37:31;;;;;;;27.20;24.40;;;;;;;9.74;100.00;97561.13;5008431;28;20288;-61
2022/10/13 06:40:00;;;;;;;28.97;25.93;;;;;;;9.89;100.00;97555.09;5037152;28;20551;-61
2022/10/13 06:42:30;;;;;;;28.13;25.13;;;;;;;10.04;100.00;97557.88;4959389;28;20833;-58
2022/10/13 06:44:58;;;;;;;28.83;24.30;;;;;;;10.12;100.00;97555.19;5046420;28;20634;-61
2022/10/13 06:47:26;;;;;;;27.33;24.03;;;;;;;10.31;100.00;97567.19;5031445;28;20554;-62
2022/10/13 06:49:55;;;;;;;26.63;24.00;;;;;;;10.41;100.00;97570.47;5036028;28;20230;-61
2022/10/13 06:52:23;;;;;;;28.63;25.60;;;;;;;10.61;100.00;97564.75;5005618;28;20212;-61
2022/10/13 06:54:51;;;;;;;27.40;24.73;;;;;;;10.85;100.00;97574.38;5033228;28;20732;-62
2022/10/13 06:57:20;;;;;;;25.73;23.23;;;;;;;10.62;100.00;97563.75;4982088;28;20233;-61
2022/10/13 06:59:49;;;;;;;25.20;22.87;;;;;;;10.73;100.00;97559.88;5032921;28;20199;-59
2022/10/13 07:02:17;;;;;;;23.33;21.13;;;;;;;10.75;100.00;97565.81;5034112;28;20622;-62
2022/10/13 07:04:46;;;;;;;24.13;21.83;;;;;;;10.77;100.00;97563.81;5033144;28;20222;-62
2022/10/13 07:07:15;;;;;;;24.43;22.03;;;;;;;10.67;100.00;97569.34;5026526;28;20288;-63
2022/10/13 07:09:44;;;;;;;24.30;22.00;;;;;;;10.82;100.00;97565.97;5023311;28;20234;-60
2022/10/13 07:12:13;;;;;;;23.83;21.53;;;;;;;10.92;100.00;97563.88;4988073;28;20244;-61
2022/10/13 07:14:42;;;;;;;25.53;22.83;;;;;;;10.92;100.00;97569.19;5032271;28;20454;-61
2022/10/13 07:17:11;;;;;;;26.70;23.60;;;;;;;11.11;100.00;97559.09;5037422;28;20206;-62
2022/10/13 07:19:39;;;;;;;25.23;23.03;;;;;;;11.34;100.00;97564.38;5034906;28;20233;-61
2022/10/13 07:22:07;;;;;;;25.27;22.60;;;;;;;11.62;100.00;97560.31;5036014;28;20244;-62
2022/10/13 07:24:35;;;;;;;24.27;21.73;;;;;;;11.72;100.00;97555.56;5006688;28;20313;-61
2022/10/13 07:27:04;;;;;;;25.13;22.47;;;;;;;11.82;100.00;97550.00;5035056;28;20209;-61
2022/10/13 07:29:35;;;;;;;24.20;21.70;;;;;;;11.81;100.00;97546.50;4985561;28;20744;-59
2022/10/13 07:32:05;;;;;;;25.23;22.67;;;;;;;11.76;100.00;97530.28;5034662;28;20206;-61
2022/10/13 07:34:33;;;;;;;24.43;22.00;;;;;;;11.91;100.00;97535.63;5031656;28;22321;-62
2022/10/13 07:37:01;;;;;;;25.63;23.00;;;;;;;11.83;100.00;97538.38;5033404;28;20225;-62
2022/10/13 07:39:29;;;;;;;24.37;22.27;;;;;;;11.87;100.00;97534.34;5007382;28;20413;-61
2022/10/13 07:41:58;;;;;;;24.63;22.23;;;;;;;12.06;100.00;97530.31;5032208;28;20302;-61
2022/10/13 07:44:26;;;;;;;24.40;22.23;;;;;;;11.96;100.00;97530.56;4984598;28;20329;-59
2022/10/13 07:46:54;;;;;;;24.93;22.47;;;;;;;12.02;100.00;97521.88;5032888;28;20697;-60
2022/10/13 07:49:24;;;;;;;24.90;22.23;;;;;;;12.04;100.00;97532.34;5031442;28;20380;-61
2022/10/13 07:51:52;;;;;;;24.23;21.73;;;;;;;12.20;100.00;97531.31;5034181;28;20210;-59
2022/10/13 07:54:20;;;;;;;24.60;22.10;;;;;;;12.30;100.00;97521.22;5008806;28;20652;-61
2022/10/13 07:56:54;;;;;;;24.63;22.20;;;;;;;12.31;100.00;97514.03;5033853;28;20248;-59
2022/10/13 07:59:23;;;;;;;23.67;21.17;;;;;;;12.43;100.00;97517.03;4983054;28;20219;-61
2022/10/13 08:01:51;;;;;;;22.73;20.40;;;;;;;12.38;100.00;97517.63;5032034;28;20337;-61
2022/10/13 08:04:19;;;;;;;24.70;21.77;;;;;;;12.36;100.00;97519.66;5034462;28;20203;-61
2022/10/13 08:06:49;;;;;;;24.03;21.50;;;;;;;12.16;100.00;97522.88;5037075;28;21139;-57
2022/10/13 08:09:17;;;;;;;24.70;22.23;;;;;;;12.43;100.00;97509.06;5024384;28;20213;-62
2022/10/13 08:11:45;;;;;;;23.67;21.27;;;;;;;12.58;100.00;97511.69;5029726;28;22264;-60
2022/10/13 08:14:14;;;;;;;23.17;20.90;;;;;;;12.61;100.00;97505.19;4985838;28;21749;-59
2022/10/13 08:16:44;;;;;;;24.47;22.07;;;;;;;12.64;100.00;97508.28;5033979;28;20323;-60
2022/10/13 08:19:19;;;;;;;21.70;19.70;;;;;;;12.60;100.00;97509.66;5037474;28;21704;-60
2022/10/13 08:21:47;;;;;;;21.80;19.47;;;;;;;12.51;100.00;97508.97;5034858;28;20207;-59
2022/10/13 08:24:37;;;;;;;21.00;18.93;;;;;;;12.78;100.00;97509.22;5034834;28;20885;-61
2022/10/13 08:27:05;;;;;;;24.33;21.83;;;;;;;12.64;100.00;97515.44;5021156;28;20479;-61
2022/10/13 08:29:33;;;;;;;21.67;19.53;;;;;;;12.81;100.00;97516.00;4989413;28;20226;-61
2022/10/13 08:32:02;;;;;;;22.83;20.63;;;;;;;12.88;100.00;97519.56;5033478;28;21612;-62
2022/10/13 08:34:30;;;;;;;22.50;20.20;;;;;;;12.91;100.00;97518.38;5037280;28;20226;-58
2022/10/13 08:36:59;;;;;;;24.57;22.13;;;;;;;13.02;100.00;97521.31;5034706;28;20395;-61
2022/10/13 08:39:27;;;;;;;23.80;21.50;;;;;;;12.83;100.00;97516.66;5035797;28;20296;-61
2022/10/13 08:41:57;;;;;;;22.97;20.30;;;;;;;13.01;100.00;97510.88;5007921;28;20233;-59
2022/10/13 08:44:28;;;;;;;22.77;20.57;;;;;;;12.98;100.00;97511.25;5036643;28;20217;-59
2022/10/13 08:47:24;;;;;;;22.37;20.07;;;;;;;12.96;100.00;97513.28;5003968;28;21144;-60
2022/10/13 08:49:53;;;;;;;22.10;20.00;;;;;;;13.02;100.00;97509.88;5037530;28;21016;-60
2022/10/13 08:52:29;;;;;;;21.93;19.60;;;;;;;13.31;100.00;97513.38;5034840;28;20372;-62
2022/10/13 08:54:58;;;;;;;22.73;20.57;;;;;;;13.36;100.00;97512.78;5037345;28;20214;-62
2022/10/13 08:57:27;;;;;;;22.17;19.90;;;;;;;13.50;100.00;97508.41;5010784;28;20350;-60
2022/10/13 08:59:55;;;;;;;23.07;20.77;;;;;;;13.20;100.00;97508.56;5035853;28;20720;-58
2022/10/13 09:02:26;;;;;;;23.93;21.70;;;;;;;13.37;100.00;97512.59;4954981;28;20210;-58
2022/10/13 09:04:54;;;;;;;22.87;20.60;;;;;;;13.04;100.00;97510.50;5037606;28;20301;-61
2022/10/13 09:07:25;;;;;;;25.67;20.60;;;;;;;13.06;100.00;97504.97;5032531;28;20582;-60
2022/10/13 09:09:54;;;;;;;23.60;21.30;;;;;;;13.24;100.00;97505.34;5037159;28;20222;-64
2022/10/13 09:12:23;;;;;;;22.93;20.70;;;;;;;13.14;100.00;97516.28;5008410;28;20254;-61
2022/10/13 09:15:03;;;;;;;24.43;21.97;;;;;;;13.23;100.00;97511.66;5036086;28;20221;-62
2022/10/13 09:17:33;;;;;;;30.40;22.27;;;;;;;13.14;100.00;97515.50;4974192;28;20214;-59
2022/10/13 09:20:04;;;;;;;23.40;21.30;;;;;;;13.25;100.00;97506.97;5035707;28;20198;-58
2022/10/13 09:22:33;;;;;;;22.87;20.63;;;;;;;13.14;100.00;97515.50;5034018;28;20434;-59
2022/10/13 09:25:11;;;;;;;23.30;21.23;;;;;;;13.23;100.00;97509.00;5030786;28;20226;-61
2022/10/13 09:27:43;;;;;;;23.60;21.20;;;;;;;13.12;100.00;97506.88;5005964;28;20852;-60
2022/10/13 09:30:32;;;;;;;23.37;20.60;;;;;;;13.09;100.00;97507.25;5003362;28;20743;-61
2022/10/13 09:33:23;;;;;;;25.13;22.60;;;;;;;12.97;100.00;97502.44;5035780;28;20605;-61
2022/10/13 09:36:09;;;;;;;24.03;21.60;;;;;;;13.12;100.00;97502.38;5034967;28;21356;-57
2022/10/13 09:38:39;;;;;;;22.17;19.83;;;;;;;13.22;100.00;97506.53;5033664;28;20312;-60
2022/10/13 09:41:14;;;;;;;24.40;21.97;;;;;;;13.10;100.00;97508.91;5027514;28;20207;-61
2022/10/13 09:43:43;;;;;;;23.63;21.23;;;;;;;13.05;100.00;97512.13;5033374;28;20209;-60
2022/10/13 09:46:21;;;;;;;24.40;22.17;;;;;;;13.08;100.00;97502.97;4987639;28;20230;-61
2022/10/13 09:48:52;;;;;;;23.57;21.27;;;;;;;13.08;100.00;97506.44;5015688;28;20210;-62
2022/10/13 09:51:30;;;;;;;23.43;21.07;;;;;;;13.25;100.00;97514.97;5032509;28;22128;-61
2022/10/13 09:53:59;;;;;;;24.70;22.17;;;;;;;13.09;100.00;97510.72;5035296;28;20587;-60
2022/10/13 09:56:31;;;;;;;26.00;22.00;;;;;;;13.02;100.00;97512.53;5003286;28;21756;-61
2022/10/13 09:59:07;;;;;;;25.90;23.53;;;;;;;12.79;100.00;97497.56;5035101;28;20213;-62
2022/10/13 10:01:43;;;;;;;24.77;22.23;;;;;;;12.80;100.00;97504.53;4984818;28;20809;-59
2022/10/13 10:04:14;;;;;;;24.03;21.73;;;;;;;12.92;100.00;97504.06;5034334;28;20205;-62
2022/10/13 10:06:44;;;;;;;24.03;21.60;;;;;;;13.09;100.00;97508.06;5034767;28;20869;-60
2022/10/13 10:09:26;;;;;;;26.83;21.30;;;;;;;13.07;100.00;97494.16;5034100;28;20672;-60
2022/10/13 10:11:58;;;;;;;25.60;23.07;;;;;;;13.03;100.00;97495.53;5035083;28;20853;-60
2022/10/13 10:14:27;;;;;;;24.23;21.93;;;;;;;13.07;100.00;97495.97;5006101;28;20268;-59
2022/10/13 10:17:03;;;;;;;24.77;22.33;;;;;;;13.03;100.00;97483.06;4987840;28;20226;-62
2022/10/13 10:19:44;;;;;;;25.00;22.80;;;;;;;13.23;100.00;97492.19;5031800;28;20383;-59
2022/10/13 10:22:18;;;;;;;24.27;21.87;;;;;;;13.34;100.00;97480.22;5032713;28;20802;-59
2022/10/13 10:24:49;;;;;;;25.00;22.40;;;;;;;13.29;100.00;97491.47;5034276;28;20817;-60
2022/10/13 10:27:19;;;;;;;24.83;22.73;;;;;;;13.18;100.00;97471.53;5008818;28;20883;-62
2022/10/13 10:29:56;;;;;;;25.57;22.43;;;;;;;13.21;100.00;97465.81;5034699;28;20201;-60
2022/10/13 10:32:32;;;;;;;26.80;24.27;;;;;;;13.33;100.00;97468.75;4984520;28;20213;-59
2022/10/13 10:35:04;;;;;;;24.90;22.30;;;;;;;13.46;100.00;97468.06;5032872;28;20222;-59
2022/10/13 10:37:45;;;;;;;23.00;20.93;;;;;;;13.46;100.00;97462.72;5034778;28;20315;-60
2022/10/13 10:40:25;;;;;;;23.00;20.90;;;;;;;13.79;100.00;97463.91;5033029;28;20204;-61
2022/10/13 10:43:00;;;;;;;22.37;19.53;;;;;;;13.72;100.00;97458.56;5012305;28;20209;-58
2022/10/13 10:45:33;;;;;;;22.43;20.17;;;;;;;13.99;100.00;97448.84;5033126;28;20319;-60
2022/10/13 10:48:12;;;;;;;22.50;20.37;;;;;;;13.66;100.00;97448.69;4988250;28;20828;-58
2022/10/13 10:50:41;;;;;;;21.80;19.50;;;;;;;13.68;100.00;97442.16;5032566;28;20503;-59
2022/10/13 10:53:14;;;;;;;21.23;19.03;;;;;;;13.92;100.00;97450.66;5033911;28;20202;-61
2022/10/13 10:55:50;;;;;;;24.77;19.10;;;;;;;13.74;100.00;97445.88;5034001;28;20234;-63
2022/10/13 10:58:24;;;;;;;20.90;18.87;;;;;;;13.70;100.00;97444.63;5007692;28;20198;-62
2022/10/13 11:00:58;;;;;;;20.63;18.73;;;;;;;13.83;100.00;97452.69;5033083;28;20490;-62
2022/10/13 11:03:38;;;;;;;20.87;18.43;;;;;;;13.46;100.00;97447.56;4980389;28;21435;-60
2022/10/13 11:06:23;;;;;;;21.43;19.43;;;;;;;13.13;100.00;97448.16;5031626;28;20267;-61
2022/10/13 11:08:51;;;;;;;23.00;20.90;;;;;;;13.14;100.00;97448.97;5031570;28;20409;-61
2022/10/13 11:11:42;;;;;;;22.30;20.30;;;;;;;12.95;100.00;97442.50;5034403;28;20761;-61
2022/10/13 11:14:30;;;;;;;24.50;21.63;;;;;;;13.08;100.00;97436.47;5011458;28;20372;-62
2022/10/13 11:17:16;;;;;;;21.53;19.27;;;;;;;13.06;100.00;97436.63;5026670;28;20514;-59
2022/10/13 11:19:47;;;;;;;22.93;20.53;;;;;;;13.06;100.00;97435.81;4982653;28;20845;-61
2022/10/13 11:22:21;;;;;;;21.63;19.40;;;;;;;13.11;100.00;97426.25;5034087;28;20671;-62
2022/10/13 11:25:02;;;;;;;22.73;19.83;;;;;;;13.09;100.00;97428.28;5031464;28;20380;-62
2022/10/13 11:27:43;;;;;;;22.90;20.87;;;;;;;13.01;100.00;97423.09;5034432;28;20209;-62
2022/10/13 11:30:41;;;;;;;24.10;21.80;;;;;;;12.94;100.00;97425.72;5008341;28;20206;-60
2022/10/13 11:33:56;;;;;;;22.93;19.10;;;;;;;12.96;100.00;97422.88;5035504;28;20541;-58
2022/10/13 11:36:51;;;;;;;23.13;20.80;;;;;;;13.07;100.00;97422.31;4902495;28;20349;-62
2022/10/13 11:40:03;;;;;;;23.47;20.97;;;;;;;13.36;100.00;97415.16;4954058;28;20792;-58
2022/10/13 11:42:53;;;;;;;25.13;21.87;;;;;;;13.12;100.00;97403.94;4954397;28;20487;-59
2022/10/13 11:46:01;;;;;;;24.63;22.33;;;;;;;13.27;100.00;97403.81;4920294;28;20306;-59
2022/10/13 11:48:52;;;;;;;23.60;21.33;;;;;;;13.20;100.00;97408.28;4954837;28;20832;-61
2022/10/13 11:51:31;;;;;;;23.50;21.30;;;;;;;13.30;100.00;97403.44;4903193;28;20785;-61
2022/10/13 11:54:13;;;;;;;23.63;21.43;;;;;;;13.17;100.00;97385.53;4954297;28;20209;-58
2022/10/13 11:56:47;;;;;;;22.97;20.83;;;;;;;13.35;100.00;97396.69;4951492;28;20419;-61
2022/10/13 11:59:24;;;;;;;24.63;22.40;;;;;;;13.54;100.00;97392.53;4955731;28;20271;-61
2022/10/13 12:01:54;;;;;;;22.80;20.73;;;;;;;13.81;100.00;97387.31;4929082;28;20433;-62
2022/10/13 12:04:24;;;;;;;21.27;19.30;;;;;;;13.86;100.00;97374.22;4953809;28;20209;-62
2022/10/13 12:06:56;;;;;;;23.77;21.23;;;;;;;13.94;100.00;97374.03;4909109;28;20572;-60
2022/10/13 12:09:26;;;;;;;22.53;19.53;;;;;;;13.96;100.00;97377.31;5037781;28;20902;-61
2022/10/13 12:12:00;;;;;;;22.97;20.57;;;;;;;14.01;100.00;97372.19;5034687;28;20818;-61
2022/10/13 12:14:32;;;;;;;23.33;20.87;;;;;;;14.10;100.00;97364.84;5036373;28;20512;-60
2022/10/13 12:17:01;;;;;;;22.17;20.07;;;;;;;14.19;100.00;97358.28;5011819;28;20372;-61
2022/10/13 12:19:32;;;;;;;20.20;18.30;;;;;;;14.42;100.00;97369.63;5036350;28;20212;-61
2022/10/13 12:22:01;;;;;;;20.90;18.90;;;;;;;14.41;100.00;97363.47;4961398;28;20459;-59
2022/10/13 12:24:31;;;;;;;21.37;19.37;;;;;;;14.53;100.00;97360.16;5034090;28;20707;-60
2022/10/13 12:26:59;;;;;;;21.80;19.70;;;;;;;14.63;100.00;97357.94;5035863;28;20299;-60
2022/10/13 12:29:28;;;;;;;21.73;19.83;;;;;;;14.75;100.00;97336.81;5035638;28;20965;-59
2022/10/13 12:32:04;;;;;;;22.33;20.03;;;;;;;15.19;100.00;97340.66;5010630;28;20583;-60
2022/10/13 12:34:35;;;;;;;19.80;18.07;;;;;;;14.92;100.00;97333.72;5035149;28;20225;-61
2022/10/13 12:37:05;;;;;;;18.87;17.17;;;;;;;15.11;100.00;97326.69;4988055;28;20211;-59
2022/10/13 12:39:35;;;;;;;18.60;16.80;;;;;;;14.83;100.00;97335.78;5033832;28;20578;-61
2022/10/13 12:42:06;;;;;;;18.93;17.10;;;;;;;14.70;100.00;97334.78;5037070;28;20202;-59
2022/10/13 12:44:35;;;;;;;21.20;19.00;;;;;;;14.35;100.00;97334.13;5033661;28;20676;-60
2022/10/13 12:47:03;;;;;;;20.17;18.33;;;;;;;14.08;100.00;97334.94;5036357;28;20217;-61
2022/10/13 12:49:33;;;;;;;20.03;17.83;;;;;;;14.39;100.00;97330.03;5009968;28;20491;-63
2022/10/13 12:52:05;;;;;;;20.33;18.27;;;;;;;14.56;100.00;97333.09;4986823;28;20241;-61
2022/10/13 12:54:38;;;;;;;20.77;18.60;;;;;;;14.58;100.00;97323.88;5032579;28;20709;-61
2022/10/13 12:57:16;;;;;;;20.67;18.67;;;;;;;14.64;100.00;97329.41;5037533;28;20198;-61
2022/10/13 12:59:45;;;;;;;20.87;18.60;;;;;;;14.47;100.00;97325.31;5033340;28;20208;-60
2022/10/13 13:02:20;;;;;;;20.53;18.50;;;;;;;14.45;100.00;97332.69;5035998;28;20209;-60
2022/10/13 13:04:49;;;;;;;20.40;18.37;;;;;;;14.46;100.00;97331.66;5007533;28;20665;-62
2022/10/13 13:07:31;;;;;;;19.37;17.70;;;;;;;14.53;100.00;97331.69;4988006;28;20221;-61
2022/10/13 13:10:14;;;;;;;21.37;18.13;;;;;;;14.53;100.00;97331.69;5034722;28;20801;-60
2022/10/13 13:12:43;;;;;;;19.30;17.40;;;;;;;14.45;100.00;97331.91;5034648;28;20229;-60
2022/10/13 13:15:30;;;;;;;19.50;17.47;;;;;;;14.30;100.00;97334.75;5035389;28;20226;-60
2022/10/13 13:18:28;;;;;;;20.33;18.43;;;;;;;14.31;100.00;97329.19;5035423;28;20210;-61
2022/10/13 13:20:56;;;;;;;19.97;18.07;;;;;;;14.27;100.00;97333.31;5008940;28;21616;-61
2022/10/13 13:23:32;;;;;;;19.37;17.47;;;;;;;14.13;100.00;97329.00;4984489;28;20206;-58
2022/10/13 13:26:03;;;;;;;19.63;17.73;;;;;;;14.13;100.00;97329.81;5034606;28;20939;-59
2022/10/13 13:28:32;;;;;;;19.33;17.13;;;;;;;14.02;100.00;97325.09;5021397;28;20917;-60
2022/10/13 13:31:00;;;;;;;18.90;17.10;;;;;;;14.06;100.00;97331.66;5035466;28;20735;-60
2022/10/13 13:33:28;;;;;;;18.97;17.07;;;;;;;13.97;100.00;97328.34;4954303;28;20758;-57
2022/10/13 13:35:56;;;;;;;20.33;18.43;;;;;;;14.00;100.00;97325.28;5016179;28;20328;-58
2022/10/13 13:38:25;;;;;;;20.17;17.33;;;;;;;14.15;100.00;97319.75;4986099;28;20210;-62
2022/10/13 13:40:53;;;;;;;19.20;17.20;;;;;;;14.15;100.00;97322.44;5011106;28;20384;-61
2022/10/13 13:43:22;;;;;;;19.53;16.60;;;;;;;14.16;100.00;97315.25;5032639;28;20464;-63
2022/10/13 13:45:51;;;;;;;18.93;17.13;;;;;;;14.14;100.00;97314.66;5036568;28;20222;-62
2022/10/13 13:48:19;;;;;;;18.63;16.83;;;;;;;13.95;100.00;97305.63;4992697;28;20685;-62
2022/10/13 13:50:47;;;;;;;18.80;16.83;;;;;;;14.12;100.00;97311.38;5031919;28;20202;-61
2022/10/13 13:53:16;;;;;;;18.93;16.93;;;;;;;14.12;100.00;97303.38;5009102;28;20883;-60
2022/10/13 13:55:44;;;;;;;29.03;26.10;;;;;;;14.23;100.00;97308.09;4965967;28;21310;-61
2022/10/13 13:58:12;;;;;;;26.57;23.97;;;;;;;14.27;100.00;97303.19;5035500;28;20210;-62
2022/10/13 14:00:42;;;;;;;19.57;17.67;;;;;;;14.36;100.00;97293.13;5032428;28;20735;-61
2022/10/13 14:03:11;;;;;;;19.23;17.07;;;;;;;14.41;100.00;97291.50;5030015;28;20203;-63
2022/10/13 14:05:46;;;;;;;19.13;16.67;;;;;;;14.48;100.00;97281.63;4997668;28;20747;-57
2022/10/13 14:08:14;;;;;;;20.07;16.83;;;;;;;14.46;100.00;97283.69;5013564;28;20224;-61
2022/10/13 14:10:42;;;;;;;17.83;16.23;;;;;;;14.70;100.00;97286.78;5015145;28;20218;-63
2022/10/13 14:13:11;;;;;;;19.13;16.77;;;;;;;14.62;100.00;97266.44;5034459;28;20234;-61
2022/10/13 14:15:39;;;;;;;17.87;16.17;;;;;;;14.55;100.00;97270.13;5033863;28;20404;-61
2022/10/13 14:18:08;;;;;;;17.63;15.77;;;;;;;14.64;100.00;97276.06;5034237;28;20418;-62
2022/10/13 14:20:40;;;;;;;17.53;16.03;;;;;;;14.47;100.00;97287.19;4981550;28;20351;-62
2022/10/13 14:23:08;;;;;;;17.53;15.67;;;;;;;14.24;100.00;97290.28;5034296;28;20664;-60
2022/10/13 14:25:38;;;;;;;17.10;15.10;;;;;;;13.98;100.00;97287.38;4955798;28;20237;-61
2022/10/13 14:28:06;;;;;;;14.80;13.40;;;;;;;13.84;100.00;97288.38;5032883;28;20199;-63
2022/10/13 14:30:34;;;;;;;15.43;14.07;;;;;;;13.89;100.00;97288.59;5031917;28;20208;-60
2022/10/13 14:33:03;;;;;;;15.03;13.63;;;;;;;13.77;100.00;97287.56;5034057;28;21045;-58
2022/10/13 14:35:33;;;;;;;17.13;15.30;;;;;;;13.66;100.00;97294.28;4978471;28;20233;-61
2022/10/13 14:38:01;;;;;;;16.03;14.33;;;;;;;13.69;100.00;97288.56;5010185;28;20324;-60
2022/10/13 14:40:29;;;;;;;17.80;14.53;;;;;;;13.55;100.00;97287.69;4978631;28;20232;-59
2022/10/13 14:42:57;;;;;;;16.83;15.13;;;;;;;13.51;100.00;97289.94;5032326;28;20198;-59
2022/10/13 14:45:26;;;;;;;17.33;15.60;;;;;;;13.59;100.00;97279.13;4961187;28;20349;-62
2022/10/13 14:47:54;;;;;;;17.30;15.20;;;;;;;13.60;100.00;97270.09;5000900;28;20202;-62
2022/10/13 14:50:22;;;;;;;18.60;16.67;;;;;;;13.77;100.00;97280.38;4973137;28;20221;-61